Time;durP1;ratioP1;P1;durP2;ratioP2;P2;SDS_P1;SDS_P2;PMS_P1;PMS_P2;Temp;Humidity;BMP_temperature;BMP_pressure;BME280_temperature;BME280_humidity;BME280_pressure;Samples;Min_cycle;Max_cycle;Signal;HPM_P1;HPM_P2
2023/01/22 00:02:25;;;;;;;16.42;11.13;;;2.30;99.90;;;;;;5076732;22;20244;-76
2023/01/22 00:05:10;;;;;;;17.73;10.32;;;2.40;99.90;;;;;;5059195;28;20320;-77
2023/01/22 00:07:56;;;;;;;15.00;10.13;;;2.40;99.90;;;;;;5056026;28;20212;-77
2023/01/22 00:10:49;;;;;;;15.52;10.52;;;2.40;99.90;;;;;;5069349;28;20215;-78
2023/01/22 00:13:35;;;;;;;14.50;10.30;;;2.30;99.90;;;;;;5057311;28;20559;-77
2023/01/22 00:16:22;;;;;;;12.27;10.23;;;2.30;99.90;;;;;;5060097;28;20205;-78
2023/01/22 00:19:08;;;;;;;18.40;11.82;;;2.40;99.90;;;;;;5050359;28;20316;-77
2023/01/22 00:21:54;;;;;;;18.48;11.00;;;2.40;99.90;;;;;;5046046;28;20240;-77
2023/01/22 00:24:40;;;;;;;16.15;11.13;;;2.40;99.90;;;;;;5054250;28;20224;-77
2023/01/22 00:27:25;;;;;;;14.30;10.30;;;2.50;99.90;;;;;;5053141;28;20220;-77
2023/01/22 00:30:12;;;;;;;14.77;10.50;;;2.50;99.90;;;;;;5065580;28;20204;-78
2023/01/22 00:32:59;;;;;;;14.75;10.35;;;2.50;99.90;;;;;;5053355;28;20781;-78
2023/01/22 00:35:45;;;;;;;15.05;10.40;;;2.50;99.90;;;;;;5046551;28;20629;-77
2023/01/22 00:38:31;;;;;;;17.92;10.50;;;2.50;99.90;;;;;;5052781;28;20255;-77
2023/01/22 00:41:18;;;;;;;15.80;10.90;;;2.50;99.90;;;;;;5060718;28;20228;-76
2023/01/22 00:44:04;;;;;;;17.70;10.55;;;2.50;99.90;;;;;;5066219;28;20324;-77
2023/01/22 00:46:51;;;;;;;18.30;11.20;;;2.50;99.90;;;;;;5050096;28;20276;-76
2023/01/22 00:49:38;;;;;;;15.85;10.57;;;2.60;99.90;;;;;;5056368;28;20298;-77
2023/01/22 00:52:24;;;;;;;12.93;9.45;;;2.60;99.90;;;;;;5052139;28;20602;-77
2023/01/22 00:55:10;;;;;;;13.73;9.35;;;2.50;99.90;;;;;;5058690;28;20567;-77
2023/01/22 00:57:55;;;;;;;13.75;9.35;;;2.60;99.90;;;;;;5054576;28;20864;-77
2023/01/22 01:00:41;;;;;;;15.13;9.57;;;2.50;99.90;;;;;;5051099;28;20219;-76
2023/01/22 01:03:27;;;;;;;13.43;10.15;;;2.50;99.90;;;;;;5051858;28;20610;-78
2023/01/22 01:06:17;;;;;;;15.02;10.48;;;2.50;99.90;;;;;;5048674;28;20320;-76
2023/01/22 01:09:04;;;;;;;14.45;11.07;;;2.50;99.90;;;;;;5054563;28;20239;-77
2023/01/22 01:11:49;;;;;;;14.50;10.38;;;2.50;99.90;;;;;;5057264;28;20223;-77
2023/01/22 01:14:35;;;;;;;17.17;11.23;;;2.50;99.90;;;;;;5061192;28;20570;-77
2023/01/22 01:17:21;;;;;;;13.55;9.90;;;2.50;99.90;;;;;;5044262;28;20750;-77
2023/01/22 01:20:07;;;;;;;16.05;10.43;;;2.50;99.90;;;;;;5057700;28;20215;-77
2023/01/22 01:22:54;;;;;;;15.70;10.90;;;2.50;99.90;;;;;;5060121;28;20203;-76
2023/01/22 01:25:42;;;;;;;22.27;11.02;;;2.60;99.90;;;;;;5041393;28;20197;-78
2023/01/22 01:28:28;;;;;;;15.75;10.77;;;2.50;99.90;;;;;;5052919;28;20239;-77
2023/01/22 01:31:15;;;;;;;18.02;11.10;;;2.40;99.90;;;;;;5050748;28;20229;-78
2023/01/22 01:34:00;;;;;;;19.00;11.57;;;2.40;99.90;;;;;;5054645;28;20305;-77
2023/01/22 01:36:46;;;;;;;13.00;10.07;;;2.50;99.90;;;;;;5047847;28;20685;-78
2023/01/22 01:39:33;;;;;;;15.88;11.02;;;2.50;99.90;;;;;;5054229;28;20200;-76
2023/01/22 01:42:27;;;;;;;16.60;11.57;;;2.40;99.90;;;;;;5049019;28;20233;-76
2023/01/22 01:45:26;;;;;;;15.00;10.43;;;2.50;99.90;;;;;;5046408;28;20221;-78
2023/01/22 01:48:23;;;;;;;18.02;11.15;;;2.60;99.90;;;;;;5053038;28;20224;-77
2023/01/22 01:51:14;;;;;;;13.63;10.15;;;2.50;99.90;;;;;;5040614;28;20225;-78
2023/01/22 01:54:02;;;;;;;17.40;11.40;;;2.30;99.90;;;;;;5052150;28;20254;-75
2023/01/22 01:56:53;;;;;;;16.52;11.02;;;2.30;99.90;;;;;;5048027;28;20252;-77
2023/01/22 01:59:39;;;;;;;12.75;9.57;;;2.30;99.90;;;;;;5058386;28;20200;-77
2023/01/22 02:02:25;;;;;;;12.48;10.13;;;2.40;99.90;;;;;;5055814;28;20228;-77
2023/01/22 02:05:11;;;;;;;13.70;9.80;;;2.40;99.90;;;;;;5049380;28;20277;-77
2023/01/22 02:07:57;;;;;;;14.35;10.45;;;2.40;99.90;;;;;;5062870;28;20235;-76
2023/01/22 02:10:44;;;;;;;12.15;9.70;;;2.40;99.90;;;;;;5063292;28;20236;-78
2023/01/22 02:13:34;;;;;;;12.73;9.35;;;2.50;99.90;;;;;;5056776;28;20705;-77
2023/01/22 02:16:19;;;;;;;15.73;9.55;;;2.50;99.90;;;;;;5056415;28;20720;-75
2023/01/22 02:19:05;;;;;;;12.98;10.00;;;2.50;99.90;;;;;;5064108;28;20210;-78
2023/01/22 02:21:52;;;;;;;12.68;8.43;;;2.50;99.90;;;;;;5056671;28;20271;-77
2023/01/22 02:24:38;;;;;;;13.10;9.80;;;2.60;99.90;;;;;;5041012;28;20558;-77
2023/01/22 02:27:24;;;;;;;13.55;9.10;;;2.50;99.90;;;;;;5052878;28;20237;-77
2023/01/22 02:30:11;;;;;;;12.60;9.73;;;2.60;99.90;;;;;;5053477;28;20205;-76
2023/01/22 02:32:56;;;;;;;11.20;9.52;;;2.70;99.90;;;;;;5063950;28;20206;-77
2023/01/22 02:35:42;;;;;;;12.32;8.55;;;2.70;99.90;;;;;;5047152;28;20204;-77
2023/01/22 02:38:29;;;;;;;12.25;8.85;;;2.70;99.90;;;;;;5044250;28;20344;-78
2023/01/22 02:41:15;;;;;;;10.98;8.23;;;2.70;99.90;;;;;;5051265;28;20224;-78
2023/01/22 02:44:01;;;;;;;13.10;8.95;;;2.70;99.90;;;;;;5049191;28;20260;-77
2023/01/22 02:46:46;;;;;;;12.90;9.25;;;2.70;99.90;;;;;;5049795;28;20225;-76
2023/01/22 02:49:32;;;;;;;14.25;9.30;;;2.70;99.90;;;;;;5049837;28;20686;-77
2023/01/22 02:52:18;;;;;;;14.43;9.23;;;2.70;99.90;;;;;;5051166;28;20217;-78
2023/01/22 02:55:06;;;;;;;13.30;8.27;;;2.70;99.90;;;;;;5046986;28;20220;-77
2023/01/22 02:57:52;;;;;;;12.77;9.15;;;2.70;99.90;;;;;;5055883;28;20217;-77
2023/01/22 03:00:37;;;;;;;10.95;8.50;;;2.70;99.90;;;;;;5049504;28;20351;-76
2023/01/22 03:03:23;;;;;;;11.60;8.18;;;2.70;99.90;;;;;;5055132;28;20300;-78
2023/01/22 03:06:09;;;;;;;14.15;8.75;;;2.70;99.90;;;;;;5051365;28;20274;-78
2023/01/22 03:08:57;;;;;;;10.57;8.20;;;2.80;99.90;;;;;;5056127;28;20212;-77
2023/01/22 03:11:46;;;;;;;12.10;8.80;;;2.80;99.90;;;;;;5051193;28;20222;-78
2023/01/22 03:23:42;;;;;;;11.95;8.18;;;2.80;99.90;;;;;;5044707;28;20205;-77
2023/01/22 03:26:30;;;;;;;11.10;8.20;;;2.80;99.90;;;;;;5051406;28;20232;-78
2023/01/22 03:29:17;;;;;;;9.40;7.88;;;2.80;99.90;;;;;;5054122;28;20706;-78
2023/01/22 03:32:03;;;;;;;11.70;7.82;;;2.80;99.90;;;;;;5054841;28;20232;-78
2023/01/22 03:34:49;;;;;;;10.90;7.85;;;2.70;99.90;;;;;;5049054;28;20208;-78
2023/01/22 03:37:35;;;;;;;10.43;7.72;;;2.60;99.90;;;;;;5052067;28;20202;-78
2023/01/22 03:40:20;;;;;;;9.57;6.97;;;2.70;99.90;;;;;;5050126;28;20628;-77
2023/01/22 03:43:06;;;;;;;15.18;8.07;;;2.70;99.90;;;;;;5052670;28;20204;-77
2023/01/22 03:45:53;;;;;;;10.02;6.93;;;2.70;99.90;;;;;;5051102;28;20204;-77
2023/01/22 03:48:39;;;;;;;10.77;7.63;;;2.70;99.90;;;;;;5049458;28;20196;-77
2023/01/22 03:51:25;;;;;;;14.13;8.18;;;2.70;99.90;;;;;;5051111;28;20236;-78
2023/01/22 03:54:11;;;;;;;10.40;8.20;;;2.70;99.90;;;;;;5040377;28;20295;-78
2023/01/22 03:56:57;;;;;;;9.55;7.70;;;2.70;99.90;;;;;;5057770;28;20192;-78
2023/01/22 03:59:42;;;;;;;10.85;7.63;;;2.70;99.90;;;;;;5047479;28;20213;-78
2023/01/22 04:02:29;;;;;;;9.18;7.10;;;2.70;99.90;;;;;;5044045;28;20735;-78
2023/01/22 04:05:15;;;;;;;8.73;6.63;;;2.80;99.90;;;;;;5041342;28;20292;-78
2023/01/22 04:08:01;;;;;;;7.25;5.80;;;2.80;99.90;;;;;;5046871;28;20220;-78
2023/01/22 04:10:47;;;;;;;10.15;6.40;;;2.80;99.90;;;;;;5056284;28;20220;-77
2023/01/22 04:13:35;;;;;;;8.02;6.50;;;2.70;99.90;;;;;;5046415;28;20204;-78
2023/01/22 04:16:20;;;;;;;7.63;5.68;;;2.80;99.90;;;;;;5052496;28;20279;-77
2023/01/22 04:19:09;;;;;;;10.38;7.30;;;2.70;99.90;;;;;;5045625;28;20204;-78
2023/01/22 04:21:55;;;;;;;7.80;6.30;;;2.70;99.90;;;;;;5046768;28;20227;-76
2023/01/22 04:24:40;;;;;;;8.23;6.45;;;2.80;99.90;;;;;;5050282;28;20271;-77
2023/01/22 04:27:26;;;;;;;9.43;6.68;;;2.80;99.90;;;;;;5043930;28;20937;-77
2023/01/22 04:30:13;;;;;;;7.95;5.60;;;2.80;99.90;;;;;;5052250;28;20212;-78
2023/01/22 04:32:58;;;;;;;8.80;6.40;;;2.70;99.90;;;;;;5042596;28;20216;-78
2023/01/22 04:35:45;;;;;;;7.25;5.90;;;2.70;99.90;;;;;;5052404;28;20212;-77
2023/01/22 04:38:31;;;;;;;7.78;6.28;;;2.70;99.90;;;;;;5048276;28;20287;-78
2023/01/22 04:41:16;;;;;;;7.20;5.72;;;2.80;99.90;;;;;;5053343;28;20225;-78
2023/01/22 04:44:02;;;;;;;7.65;6.20;;;2.80;99.90;;;;;;5046069;28;20217;-78
2023/01/22 04:46:48;;;;;;;9.40;6.85;;;2.80;99.90;;;;;;5064510;28;20230;-77
2023/01/22 04:49:33;;;;;;;8.82;6.80;;;2.80;99.90;;;;;;5054076;28;20421;-78
2023/01/22 04:52:20;;;;;;;7.40;5.22;;;2.80;99.90;;;;;;5039741;28;20773;-78
2023/01/22 04:55:07;;;;;;;6.95;5.55;;;2.80;99.90;;;;;;5048660;28;20217;-77
2023/01/22 04:57:55;;;;;;;7.35;6.18;;;2.80;99.90;;;;;;5058708;28;20263;-78
2023/01/22 05:00:40;;;;;;;6.82;5.95;;;2.80;99.90;;;;;;5049172;28;20224;-78
2023/01/22 05:03:26;;;;;;;7.43;6.07;;;2.80;99.90;;;;;;5042987;28;20219;-75
2023/01/22 05:06:12;;;;;;;7.22;6.18;;;2.80;99.90;;;;;;5050316;28;20217;-77
2023/01/22 05:08:59;;;;;;;8.25;6.03;;;2.70;99.90;;;;;;5059522;28;20297;-78
2023/01/22 05:11:45;;;;;;;6.47;5.72;;;2.80;99.90;;;;;;5050160;28;20582;-78
2023/01/22 05:14:31;;;;;;;7.53;6.00;;;2.80;99.90;;;;;;5055829;28;20210;-78
2023/01/22 05:17:17;;;;;;;7.60;6.60;;;2.80;99.90;;;;;;5049675;28;20274;-77
2023/01/22 05:20:02;;;;;;;7.22;5.82;;;2.80;99.90;;;;;;5051614;28;20204;-77
2023/01/22 05:22:48;;;;;;;6.93;5.88;;;2.80;99.90;;;;;;5049163;28;20280;-77
2023/01/22 05:25:35;;;;;;;7.20;5.95;;;2.80;99.90;;;;;;5052171;28;20243;-77
2023/01/22 05:28:21;;;;;;;10.43;5.53;;;2.80;99.90;;;;;;5060996;28;20220;-77
2023/01/22 05:31:07;;;;;;;6.40;5.65;;;2.80;99.90;;;;;;5051212;28;20287;-75
2023/01/22 05:33:52;;;;;;;6.15;5.15;;;2.80;99.90;;;;;;5052580;28;20216;-78
2023/01/22 05:36:38;;;;;;;6.93;6.15;;;2.80;99.90;;;;;;5054059;28;20204;-78
2023/01/22 05:39:24;;;;;;;7.10;6.00;;;2.90;99.90;;;;;;5054021;28;20252;-78
2023/01/22 05:42:15;;;;;;;7.88;7.07;;;2.80;99.90;;;;;;5052224;28;20216;-78
2023/01/22 05:45:00;;;;;;;8.18;7.18;;;2.70;99.90;;;;;;5055933;28;20212;-78
2023/01/22 05:47:52;;;;;;;8.23;6.10;;;2.70;99.90;;;;;;5048234;28;20602;-78
2023/01/22 05:50:37;;;;;;;8.60;6.63;;;2.70;99.90;;;;;;5044325;28;20220;-76
2023/01/22 05:53:23;;;;;;;14.13;6.57;;;2.70;99.90;;;;;;5048302;28;20200;-77
2023/01/22 05:56:09;;;;;;;7.10;6.22;;;2.70;99.90;;;;;;5044684;28;20244;-77
2023/01/22 05:58:56;;;;;;;7.38;6.47;;;2.70;99.90;;;;;;5052267;28;20205;-78
2023/01/22 06:01:41;;;;;;;11.15;6.70;;;2.70;99.90;;;;;;5064663;22;20260;-73
2023/01/22 06:04:28;;;;;;;8.00;6.43;;;2.70;99.90;;;;;;5051341;28;20631;-73
2023/01/22 06:07:13;;;;;;;7.53;6.20;;;2.80;99.90;;;;;;5057817;28;20223;-72
2023/01/22 06:09:59;;;;;;;7.10;6.30;;;2.70;99.90;;;;;;5062511;28;20736;-73
2023/01/22 06:12:45;;;;;;;7.53;6.70;;;2.70;99.90;;;;;;5044276;28;20233;-72
2023/01/22 06:15:32;;;;;;;7.82;6.85;;;2.70;99.90;;;;;;5054604;28;20205;-72
2023/01/22 06:18:17;;;;;;;13.05;6.53;;;2.70;99.90;;;;;;5052973;28;21054;-73
2023/01/22 06:21:05;;;;;;;8.35;6.70;;;2.70;99.90;;;;;;5046842;28;20696;-73
2023/01/22 06:23:51;;;;;;;11.52;7.85;;;2.60;99.90;;;;;;5048095;28;20209;-73
2023/01/22 06:26:37;;;;;;;10.23;7.38;;;2.70;99.90;;;;;;5045525;28;20334;-73
2023/01/22 06:29:22;;;;;;;8.02;7.15;;;2.70;99.90;;;;;;5048057;28;20351;-73
2023/01/22 06:32:09;;;;;;;9.82;8.82;;;2.60;99.90;;;;;;5042197;28;20701;-73
2023/01/22 06:34:55;;;;;;;9.90;7.00;;;2.60;99.90;;;;;;5040871;28;20201;-72
2023/01/22 06:37:40;;;;;;;7.75;6.25;;;2.70;99.90;;;;;;5044266;28;20572;-73
2023/01/22 06:40:26;;;;;;;7.63;6.22;;;2.70;99.90;;;;;;5049746;28;20582;-72
2023/01/22 06:43:11;;;;;;;8.45;7.53;;;2.60;99.90;;;;;;5046975;28;20742;-73
2023/01/22 06:45:57;;;;;;;10.45;6.95;;;2.60;99.90;;;;;;5043355;28;20213;-73
2023/01/22 06:48:45;;;;;;;10.88;7.50;;;2.60;99.90;;;;;;5043621;28;20244;-73
2023/01/22 06:51:32;;;;;;;7.90;6.70;;;2.70;99.90;;;;;;5045290;28;20220;-73
2023/01/22 06:54:17;;;;;;;8.63;7.05;;;2.60;99.90;;;;;;5048294;28;20220;-73
2023/01/22 06:57:04;;;;;;;8.25;7.05;;;2.60;99.90;;;;;;5047440;28;20208;-73
2023/01/22 06:59:49;;;;;;;9.65;6.93;;;2.60;99.90;;;;;;5046629;28;20196;-72
2023/01/22 07:02:35;;;;;;;11.23;8.40;;;2.60;99.90;;;;;;5048803;28;20236;-72
2023/01/22 07:05:22;;;;;;;11.48;7.60;;;2.60;99.90;;;;;;5046186;28;20414;-72
2023/01/22 07:08:14;;;;;;;12.50;9.10;;;2.60;99.90;;;;;;5048858;28;20767;-73
2023/01/22 07:11:00;;;;;;;17.63;9.10;;;2.60;99.90;;;;;;5047742;28;20299;-72
2023/01/22 07:13:46;;;;;;;11.63;8.52;;;2.60;99.90;;;;;;5056279;28;20344;-73
2023/01/22 07:16:31;;;;;;;13.05;7.90;;;2.60;99.90;;;;;;5044339;28;20283;-73
2023/01/22 07:19:17;;;;;;;11.00;8.10;;;2.60;99.90;;;;;;5040988;28;20206;-73
2023/01/22 07:22:04;;;;;;;11.35;6.70;;;2.60;99.90;;;;;;5045771;28;20229;-72
2023/01/22 07:24:50;;;;;;;9.07;6.07;;;2.60;99.90;;;;;;5048789;28;20324;-72
2023/01/22 07:27:37;;;;;;;7.75;6.28;;;2.60;99.90;;;;;;5041524;28;20204;-72
2023/01/22 07:30:23;;;;;;;8.20;6.20;;;2.70;99.90;;;;;;5038546;28;20563;-72
2023/01/22 07:33:11;;;;;;;7.75;6.18;;;2.70;99.90;;;;;;5047083;28;20579;-72
2023/01/22 07:35:57;;;;;;;8.65;6.72;;;2.70;99.90;;;;;;5039292;28;20282;-73
2023/01/22 07:38:44;;;;;;;7.97;6.32;;;2.70;99.90;;;;;;5044656;28;20205;-73
2023/01/22 07:41:29;;;;;;;7.13;5.63;;;2.80;99.90;;;;;;5037785;28;20303;-73
2023/01/22 07:44:15;;;;;;;8.77;7.07;;;2.70;99.90;;;;;;5041338;28;20232;-73
2023/01/22 07:47:01;;;;;;;8.25;7.43;;;2.70;99.90;;;;;;5041527;28;20213;-73
2023/01/22 07:49:47;;;;;;;9.77;6.93;;;2.80;99.90;;;;;;5040718;28;20236;-73
2023/01/22 07:52:32;;;;;;;8.55;6.60;;;2.80;99.90;;;;;;5048403;28;20224;-72
2023/01/22 07:55:20;;;;;;;11.27;6.97;;;2.90;99.90;;;;;;5040970;28;20205;-73
2023/01/22 07:58:07;;;;;;;9.75;7.18;;;2.90;99.90;;;;;;5042798;28;20738;-72
2023/01/22 08:00:52;;;;;;;9.43;6.75;;;2.90;99.90;;;;;;5038797;28;20247;-73
2023/01/22 08:03:38;;;;;;;10.00;7.47;;;2.90;99.90;;;;;;5043697;28;20243;-72
2023/01/22 08:06:24;;;;;;;11.73;7.85;;;2.90;99.90;;;;;;5045211;28;20672;-73
2023/01/22 08:09:10;;;;;;;10.52;8.43;;;3.00;99.90;;;;;;5048439;28;20289;-73
2023/01/22 08:11:57;;;;;;;9.45;8.45;;;3.10;99.90;;;;;;5045229;28;20276;-73
2023/01/22 08:14:42;;;;;;;9.80;8.15;;;3.10;99.90;;;;;;5044703;28;20204;-72
2023/01/22 08:17:28;;;;;;;8.68;7.03;;;3.20;99.90;;;;;;5049947;28;20200;-73
2023/01/22 08:20:14;;;;;;;10.60;7.85;;;3.20;99.90;;;;;;5042783;28;20246;-73
2023/01/22 08:23:00;;;;;;;7.85;6.45;;;3.30;99.90;;;;;;5040305;28;20220;-73
2023/01/22 08:25:45;;;;;;;7.47;6.68;;;3.30;99.90;;;;;;5043846;28;20200;-73
2023/01/22 08:28:33;;;;;;;9.10;7.13;;;3.40;99.90;;;;;;5044266;28;20229;-73
2023/01/22 08:31:18;;;;;;;7.00;6.15;;;3.50;99.90;;;;;;5039857;28;20348;-73
2023/01/22 08:34:04;;;;;;;10.65;7.15;;;3.40;99.90;;;;;;5046166;28;20275;-72
2023/01/22 08:36:50;;;;;;;7.30;6.50;;;3.40;99.90;;;;;;5040792;28;20217;-73
2023/01/22 08:39:35;;;;;;;6.80;6.20;;;3.40;99.90;;;;;;5043390;28;20224;-72
2023/01/22 08:42:21;;;;;;;9.45;6.78;;;3.50;99.90;;;;;;5047292;28;20261;-72
2023/01/22 08:45:09;;;;;;;7.85;5.95;;;3.60;99.90;;;;;;5054195;28;20196;-72
2023/01/22 08:47:58;;;;;;;6.80;5.63;;;3.40;99.90;;;;;;5062753;28;20272;-73
2023/01/22 08:50:43;;;;;;;7.03;6.10;;;3.50;99.90;;;;;;5049068;28;20716;-73
2023/01/22 08:53:29;;;;;;;6.78;5.90;;;3.60;99.90;;;;;;5049749;28;20814;-73
2023/01/22 08:56:15;;;;;;;6.85;6.00;;;3.80;99.90;;;;;;5046016;28;20196;-72
2023/01/22 08:59:05;;;;;;;6.03;5.43;;;3.70;99.90;;;;;;5054289;28;20411;-73
2023/01/22 09:01:52;;;;;;;5.82;5.10;;;3.80;99.90;;;;;;5055774;28;20233;-73
2023/01/22 09:04:37;;;;;;;8.85;6.15;;;3.90;99.90;;;;;;5049757;28;20669;-73
2023/01/22 09:07:23;;;;;;;9.43;7.78;;;4.00;99.90;;;;;;5050809;28;20268;-73
2023/01/22 09:10:11;;;;;;;7.05;5.80;;;4.00;99.90;;;;;;5047690;28;20220;-73
2023/01/22 09:12:59;;;;;;;7.45;6.25;;;4.00;99.90;;;;;;5052146;28;20379;-73
2023/01/22 09:15:44;;;;;;;7.75;6.22;;;4.00;99.90;;;;;;5048348;28;20317;-73
2023/01/22 09:18:31;;;;;;;7.22;5.72;;;4.00;99.90;;;;;;5047730;28;20205;-73
2023/01/22 09:21:17;;;;;;;6.55;5.72;;;4.00;99.90;;;;;;5050047;28;20237;-72
2023/01/22 09:24:03;;;;;;;7.13;5.70;;;4.00;99.90;;;;;;5063944;28;20567;-73
2023/01/22 09:26:48;;;;;;;7.32;6.18;;;4.00;99.90;;;;;;5058618;28;20204;-72
2023/01/22 09:29:34;;;;;;;6.55;5.45;;;4.00;99.90;;;;;;5044187;28;20694;-72
2023/01/22 09:32:20;;;;;;;7.72;6.60;;;4.00;99.90;;;;;;5049106;28;20746;-73
2023/01/22 09:35:08;;;;;;;10.00;6.72;;;4.00;99.90;;;;;;5036399;28;20216;-73
2023/01/22 09:37:54;;;;;;;10.13;7.63;;;4.00;99.90;;;;;;5050046;28;20335;-73
2023/01/22 09:40:45;;;;;;;8.07;6.60;;;4.10;99.90;;;;;;5046242;28;20255;-73
2023/01/22 09:43:34;;;;;;;9.60;7.55;;;4.00;99.90;;;;;;5038550;28;20209;-72
2023/01/22 09:46:27;;;;;;;7.38;6.55;;;4.00;99.90;;;;;;5047409;28;20284;-73
2023/01/22 09:49:15;;;;;;;10.20;7.90;;;3.90;99.90;;;;;;5041068;28;20280;-73
2023/01/22 09:52:05;;;;;;;8.48;6.60;;;3.90;99.90;;;;;;5044851;28;20516;-73
2023/01/22 09:54:50;;;;;;;11.07;7.88;;;3.80;99.90;;;;;;5050670;28;20205;-72
2023/01/22 09:57:36;;;;;;;9.30;7.55;;;3.80;99.90;;;;;;5047530;28;20245;-73
2023/01/22 10:00:24;;;;;;;8.57;6.82;;;3.90;99.90;;;;;;5046847;28;20801;-73
2023/01/22 10:03:15;;;;;;;8.50;7.15;;;3.90;99.90;;;;;;5056222;28;20407;-73
2023/01/22 10:06:05;;;;;;;8.13;7.25;;;4.00;99.90;;;;;;5052660;28;20571;-73
2023/01/22 10:09:01;;;;;;;7.82;6.50;;;4.00;99.90;;;;;;5051426;28;20355;-73
2023/01/22 10:11:51;;;;;;;7.40;5.90;;;3.90;99.90;;;;;;5052673;28;20599;-73
2023/01/22 10:14:36;;;;;;;9.75;5.32;;;4.00;99.90;;;;;;5049672;28;20200;-72
2023/01/22 10:17:29;;;;;;;6.53;5.90;;;4.00;99.90;;;;;;5049855;28;20196;-73
2023/01/22 10:20:19;;;;;;;7.65;5.95;;;4.00;99.90;;;;;;5050516;28;20268;-73
2023/01/22 10:23:16;;;;;;;6.50;5.70;;;4.00;99.90;;;;;;5056651;28;20223;-72
2023/01/22 10:26:14;;;;;;;6.63;5.55;;;4.00;99.90;;;;;;5047810;28;20209;-73
2023/01/22 10:29:05;;;;;;;6.93;5.60;;;4.00;99.90;;;;;;5041849;28;20248;-73
2023/01/22 10:31:53;;;;;;;6.00;5.40;;;4.00;99.90;;;;;;5051138;28;20322;-73
2023/01/22 10:34:38;;;;;;;6.47;5.28;;;4.00;99.90;;;;;;5044200;28;20251;-73
2023/01/22 10:37:24;;;;;;;5.85;5.22;;;4.00;99.90;;;;;;5053798;28;20586;-73
2023/01/22 10:40:21;;;;;;;6.93;5.45;;;4.00;99.90;;;;;;5046300;28;20690;-71
2023/01/22 10:43:12;;;;;;;7.97;5.63;;;4.10;99.90;;;;;;5050426;28;20271;-73
2023/01/22 10:46:03;;;;;;;8.95;5.55;;;4.10;99.90;;;;;;5061393;28;20739;-73
2023/01/22 10:48:59;;;;;;;7.80;6.00;;;4.00;99.90;;;;;;5048994;28;20275;-73
2023/01/22 10:51:49;;;;;;;6.28;5.50;;;4.00;99.90;;;;;;5040862;28;20221;-73
2023/01/22 10:54:38;;;;;;;8.27;6.38;;;4.00;99.90;;;;;;5045904;28;20702;-73
2023/01/22 10:57:28;;;;;;;6.72;5.80;;;4.00;99.90;;;;;;5051237;28;20209;-74
2023/01/22 11:00:25;;;;;;;5.95;5.35;;;4.10;99.90;;;;;;5043584;28;20197;-72
2023/01/22 11:03:20;;;;;;;8.25;5.68;;;4.20;99.90;;;;;;5045952;28;20293;-73
2023/01/22 11:06:13;;;;;;;7.43;5.85;;;4.30;99.90;;;;;;5059130;28;20220;-73
2023/01/22 11:09:02;;;;;;;8.10;6.40;;;4.20;99.90;;;;;;5062606;28;20239;-73
2023/01/22 11:11:56;;;;;;;7.35;6.47;;;4.30;99.90;;;;;;5057793;28;20237;-73
2023/01/22 11:14:42;;;;;;;8.27;6.07;;;4.40;99.90;;;;;;5061566;28;20260;-72
2023/01/22 11:17:37;;;;;;;6.43;5.40;;;4.40;99.90;;;;;;5048881;28;20197;-73
2023/01/22 11:20:27;;;;;;;7.25;6.10;;;4.40;99.90;;;;;;5048724;28;20212;-73
2023/01/22 11:23:24;;;;;;;7.40;6.07;;;4.40;99.90;;;;;;5052934;28;20209;-74
2023/01/22 11:26:17;;;;;;;6.20;5.60;;;4.50;99.90;;;;;;5057662;28;20204;-73
2023/01/22 11:29:13;;;;;;;8.15;6.07;;;4.50;99.90;;;;;;5062358;28;20730;-73
2023/01/22 11:32:15;;;;;;;10.10;7.82;;;4.60;99.90;;;;;;5051779;28;20228;-73
2023/01/22 11:35:13;;;;;;;7.97;6.05;;;4.60;99.90;;;;;;5057746;28;20331;-73
2023/01/22 11:38:16;;;;;;;9.43;5.65;;;4.60;99.90;;;;;;5056677;28;20216;-73
2023/01/22 11:41:22;;;;;;;6.18;5.28;;;4.50;99.90;;;;;;5047486;28;20891;-73
2023/01/22 11:44:32;;;;;;;5.35;4.85;;;4.50;99.90;;;;;;5040440;28;20776;-72
2023/01/22 11:47:42;;;;;;;5.95;5.35;;;4.50;99.90;;;;;;5048463;28;20209;-73
2023/01/22 11:50:36;;;;;;;6.60;5.05;;;4.50;99.90;;;;;;5050441;28;20245;-73
2023/01/22 11:53:58;;;;;;;6.85;5.68;;;4.50;99.90;;;;;;5049258;28;20562;-73
2023/01/22 11:57:07;;;;;;;8.10;5.65;;;4.50;99.90;;;;;;5040465;28;20278;-73
2023/01/22 12:00:32;;;;;;;6.65;4.85;;;4.50;99.90;;;;;;5053398;28;20324;-73
2023/01/22 12:03:50;;;;;;;6.70;4.85;;;4.50;99.90;;;;;;5023635;22;20361;-73
2023/01/22 12:06:54;;;;;;;8.48;5.38;;;4.60;99.90;;;;;;5004524;28;20217;-74
2023/01/22 12:09:47;;;;;;;9.38;6.63;;;4.50;99.90;;;;;;5003107;28;20250;-73
2023/01/22 12:12:41;;;;;;;6.00;5.28;;;4.50;99.90;;;;;;5005001;28;20280;-73
2023/01/22 12:15:41;;;;;;;5.13;4.28;;;4.50;99.90;;;;;;4991543;28;20562;-73
2023/01/22 12:19:03;;;;;;;5.93;4.45;;;4.50;99.90;;;;;;4999664;28;20223;-72
2023/01/22 12:21:59;;;;;;;5.50;4.65;;;4.50;99.90;;;;;;4991552;28;20362;-73
2023/01/22 12:24:50;;;;;;;5.20;4.50;;;4.40;99.90;;;;;;5007488;28;20205;-72
2023/01/22 12:27:40;;;;;;;6.35;5.47;;;4.40;99.90;;;;;;5002111;28;20209;-73
2023/01/22 12:30:30;;;;;;;5.18;4.65;;;4.40;99.90;;;;;;4993204;28;20779;-73
2023/01/22 12:33:19;;;;;;;7.45;6.22;;;4.40;99.90;;;;;;4993408;28;20304;-73
2023/01/22 12:36:08;;;;;;;6.45;5.75;;;4.40;99.90;;;;;;4997522;28;20223;-73
2023/01/22 12:39:00;;;;;;;6.53;5.38;;;4.50;99.90;;;;;;4997713;28;20218;-72
2023/01/22 12:41:55;;;;;;;6.57;4.88;;;4.40;99.90;;;;;;5000967;28;20333;-73
2023/01/22 12:44:53;;;;;;;6.57;5.85;;;4.40;99.90;;;;;;5001217;28;20206;-74
2023/01/22 12:47:48;;;;;;;6.00;5.03;;;4.30;99.90;;;;;;4999330;28;20587;-73
2023/01/22 12:50:33;;;;;;;6.80;5.75;;;4.30;99.90;;;;;;4999895;28;20362;-73
2023/01/22 12:53:25;;;;;;;8.02;6.22;;;4.40;99.90;;;;;;5003387;28;20226;-73
2023/01/22 12:56:12;;;;;;;6.80;5.85;;;4.30;99.90;;;;;;4998667;28;20565;-73
2023/01/22 12:58:59;;;;;;;6.40;5.72;;;4.40;99.90;;;;;;5002185;28;20583;-72
2023/01/22 13:01:44;;;;;;;6.32;5.13;;;4.30;99.90;;;;;;4991101;28;20406;-74
2023/01/22 13:04:31;;;;;;;6.05;5.45;;;4.40;99.90;;;;;;4998260;28;20198;-73
2023/01/22 13:07:23;;;;;;;4.82;4.32;;;4.40;99.90;;;;;;4994159;28;20202;-73
2023/01/22 13:10:25;;;;;;;5.65;5.13;;;4.40;99.90;;;;;;4992953;28;20222;-74
2023/01/22 13:13:23;;;;;;;6.35;5.15;;;4.50;99.90;;;;;;4999591;28;20230;-73
2023/01/22 13:16:21;;;;;;;8.27;6.25;;;4.40;99.90;;;;;;5008831;28;20747;-72
2023/01/22 13:19:20;;;;;;;7.72;6.95;;;4.50;99.90;;;;;;5003422;28;20273;-73
2023/01/22 13:22:06;;;;;;;7.72;6.93;;;4.40;99.90;;;;;;5003073;28;20234;-73
2023/01/22 13:24:54;;;;;;;8.48;6.63;;;4.40;99.90;;;;;;4994412;28;20202;-72
2023/01/22 13:27:40;;;;;;;6.90;6.20;;;4.40;99.90;;;;;;5004031;28;20329;-72
2023/01/22 13:30:29;;;;;;;6.28;5.53;;;4.40;99.90;;;;;;4995180;28;20266;-72
2023/01/22 13:33:16;;;;;;;7.75;5.97;;;4.40;99.90;;;;;;5002348;28;20225;-72
2023/01/22 13:36:09;;;;;;;6.70;6.00;;;4.30;99.90;;;;;;5004879;28;20261;-73
2023/01/22 13:38:56;;;;;;;7.22;5.90;;;4.30;99.90;;;;;;5003144;28;20206;-74
2023/01/22 13:41:42;;;;;;;10.27;6.35;;;4.40;99.90;;;;;;5002469;28;20236;-72
2023/01/22 13:44:32;;;;;;;7.07;5.43;;;4.40;99.90;;;;;;5014443;28;20571;-73
2023/01/22 13:47:27;;;;;;;6.68;5.75;;;4.40;99.90;;;;;;5018017;28;20215;-72
2023/01/22 13:50:21;;;;;;;7.55;5.53;;;4.50;99.90;;;;;;4998940;28;20374;-72
2023/01/22 13:53:12;;;;;;;7.25;5.43;;;4.50;99.90;;;;;;5021451;28;20233;-72
2023/01/22 13:55:58;;;;;;;5.90;5.30;;;4.40;99.90;;;;;;5012983;28;20213;-72
2023/01/22 13:58:45;;;;;;;8.38;5.40;;;4.50;99.90;;;;;;5007324;28;20218;-71
2023/01/22 14:01:32;;;;;;;6.45;5.32;;;4.40;99.90;;;;;;5027929;28;20198;-72
2023/01/22 14:04:31;;;;;;;5.68;4.82;;;4.50;99.90;;;;;;5021982;28;20205;-72
2023/01/22 14:07:24;;;;;;;8.07;6.95;;;4.50;99.90;;;;;;5013262;28;20261;-72
2023/01/22 14:10:15;;;;;;;7.40;6.50;;;4.50;99.90;;;;;;5021639;28;20218;-75
2023/01/22 14:13:03;;;;;;;6.38;5.78;;;4.50;99.90;;;;;;5013957;28;20294;-75
2023/01/22 14:15:56;;;;;;;7.25;6.53;;;4.40;99.90;;;;;;5016084;28;20206;-75
2023/01/22 14:18:44;;;;;;;6.80;5.20;;;4.40;99.90;;;;;;5004778;28;20582;-75
2023/01/22 14:21:32;;;;;;;6.80;5.13;;;4.40;99.90;;;;;;5012882;28;20201;-75
2023/01/22 14:24:18;;;;;;;28.05;5.65;;;4.40;99.90;;;;;;5018402;28;20201;-75
2023/01/22 14:27:04;;;;;;;6.80;4.80;;;4.50;99.90;;;;;;5014765;28;20202;-72
2023/01/22 14:29:50;;;;;;;7.82;4.70;;;4.40;99.90;;;;;;5002273;28;20366;-73
2023/01/22 14:32:35;;;;;;;6.43;4.90;;;4.40;99.90;;;;;;5014437;28;20305;-72
2023/01/22 14:35:23;;;;;;;5.85;4.75;;;4.30;99.90;;;;;;5011554;28;20725;-73
2023/01/22 14:38:10;;;;;;;6.40;5.03;;;4.30;99.90;;;;;;5008143;28;20334;-73
2023/01/22 14:40:56;;;;;;;10.77;6.15;;;4.30;99.90;;;;;;5011885;28;20256;-73
2023/01/22 14:43:42;;;;;;;9.10;6.15;;;4.30;99.90;;;;;;5012860;28;20330;-73
2023/01/22 14:46:27;;;;;;;15.43;7.85;;;4.30;99.90;;;;;;5013137;28;20210;-72
2023/01/22 14:49:13;;;;;;;20.30;8.98;;;4.30;99.90;;;;;;5000327;28;20760;-72
2023/01/22 14:51:59;;;;;;;9.50;6.32;;;4.30;99.90;;;;;;5013731;28;20300;-72
2023/01/22 14:54:46;;;;;;;8.80;6.30;;;4.10;99.90;;;;;;5002541;28;20235;-74